TFM - Tactical Decision Aid
ID: Runway Winds: CIG/VIS Threshold:

KDNL - Augusta/Daniel Fld, GA, US

Updated at: 2022 UTC 25 Sep 2020
Latest TAF at: 1936 UTC 25 Sep 2020

TAF Board

Time1953Z 25/21Z 25/22Z 25/23Z 26/00Z 26/01Z 26/02Z 26/03Z 26/04Z 26/05Z 26/06Z 26/07Z 26/08Z 26/09Z>>
Type OBS PRVL
  [TEMP]  
PRVL
  [TEMP]  
PRVL PRVL PRVL PRVL PRVL PRVL PRVL PRVL PRVL PRVL PRVL
VIS 10 >6
  [5]  
>6
  [5]  
>6 >6 >6 >6 >6 >6 4 4 4 2 2
CIG -- 35
  [30]  
35
  [30]  
35 15 15 15 15 15 7 7 7 3 3
Cover FEW BKN
  [BKN]  
BKN
  [BKN]  
BKN BKN BKN BKN BKN BKN OVC OVC OVC OVC OVC
FltCat VFR VFR
  [MVFR]  
VFR
  [MVFR]  
VFR MVFR MVFR MVFR MVFR MVFR IFR IFR IFR LIFR LIFR
WX -- --
  [-SHRA]  
--
  [-SHRA]  
-- VCSH VCSH VCSH VCSH VCSH BR BR BR BR BR
WDir VRB VRB
[VRB]
VRB
[VRB]
VRB VRB VRB VRB VRB VRB VRB VRB VRB VRB VRB
WSpd 3 5
  [5]  
5
  [5]  
5 4 4 4 4 4 0 0 0 3 3
WGst -- --
  [--]  
--
  [--]  
-- -- -- -- -- -- -- -- -- -- --

TDA Impact Legend

  None Marginal Slight Moderate High
Visibility (sm) >5 3≤X≤5 2≤X<3 1≤X<2 <1
Ceiling (100 ft) >30 10≤X≤30 8≤X<10 5≤X<8 <5
Wind Speed (kt) <15 15≤X<25 25≤X<30 ≥30
Wind Gust (kt) <15 15≤X<25 25≤X<35 ≥35
Weather No Wx Reported VCTS -TS,-FZRA TS,FZRA +TS,+FZRA
TAF
KDNL 251936Z 2520/2618 VRB05KT P6SM SCT015 BKN035
  TEMPO 2521/2523 5SM -SHRA BKN030
  FM260000 VRB04KT P6SM VCSH SCT008 BKN015
  FM260500 00000KT 4SM BR OVC007
  FM260800 VRB03KT 2SM BR OVC003
  TEMPO 2610/2613 1/2SM FG OVC001
  FM261500 VRB03KT 5SM BR OVC006


METAR
KDNL 251953Z AUTO VRB03KT 10SM FEW075 29/23 A2994 RMK AO2 SLP133 T02890228
KDNL 251853Z AUTO 27003KT 10SM SCT015 SCT042 BKN055 28/23 A2996 RMK AO2 SLP140 T02780228
KDNL 251753Z AUTO 00000KT 10SM FEW021 SCT039 BKN055 25/23 A2998 RMK AO2 RAB19E50 SLP147 P0035 60037 T02500233 10278 20233 56008
KDNL 251740Z AUTO 27004KT 4SM -RA BR FEW004 BKN039 OVC055 24/23 A2999 RMK AO2 RAB19 P0035 T02440228
KDNL 251738Z AUTO 27003KT 1 1/4SM -RA BR FEW004 BKN039 OVC050 24/23 A2999 RMK AO2 RAB19 P0035 T02440228
KDNL 251724Z AUTO 26007KT 220V300 3/4SM +RA FEW005 BKN023 OVC050 26/22 A3000 RMK AO2 RAB19 P0016 T02610222
KDNL 251722Z AUTO 25005KT 1 1/2SM +RA FEW019 BKN025 OVC050 27/22 A2999 RMK AO2 RAB19 P0007 T02670222
KDNL 251653Z AUTO 22006KT 10SM FEW022 SCT034 BKN055 28/22 A2999 RMK AO2 SLP149 T02780222

Radar Display
Forecast Discussion